createdAt,value
2023-03-17T00:01:54.592Z,9.90
2023-03-17T00:04:24.324Z,9.70
2023-03-17T00:06:53.081Z,9.80
2023-03-17T00:09:22.447Z,10.00
2023-03-17T00:11:50.449Z,9.90
2023-03-17T00:14:19.661Z,10.00
2023-03-17T00:16:51.625Z,9.80
2023-03-17T00:19:31.201Z,9.70
2023-03-17T00:22:00.234Z,10.00
2023-03-17T00:24:28.883Z,9.80
2023-03-17T00:26:56.345Z,9.70
2023-03-17T00:29:24.392Z,10.10
2023-03-17T00:31:52.062Z,10.00
2023-03-17T00:34:23.464Z,10.00
2023-03-17T00:36:52.696Z,9.70
2023-03-17T00:39:20.817Z,9.90
2023-03-17T00:41:48.435Z,9.70
2023-03-17T00:44:15.870Z,10.10
2023-03-17T00:46:43.422Z,10.00
2023-03-17T00:49:23.565Z,10.00
2023-03-17T00:51:51.611Z,9.80
2023-03-17T00:54:20.832Z,9.90
2023-03-17T00:56:51.041Z,9.80
2023-03-17T00:59:25.400Z,9.80
2023-03-17T01:01:53.200Z,10.00
2023-03-17T01:04:21.785Z,10.00
2023-03-17T01:06:50.258Z,9.90
2023-03-17T01:09:22.124Z,9.70
2023-03-17T01:11:49.647Z,10.00
2023-03-17T01:14:17.434Z,10.00
2023-03-17T01:16:45.618Z,9.70
2023-03-17T01:19:14.120Z,9.90
2023-03-17T01:21:42.566Z,10.10
2023-03-17T01:24:10.101Z,9.80
2023-03-17T01:26:38.058Z,10.10
2023-03-17T01:29:07.934Z,9.70
2023-03-17T01:31:36.329Z,9.90
2023-03-17T01:34:06.355Z,10.00
2023-03-17T01:36:34.386Z,10.00
2023-03-17T01:39:02.048Z,9.70
2023-03-17T01:41:34.633Z,9.80
2023-03-17T01:44:02.250Z,10.10
2023-03-17T01:46:35.721Z,10.00
2023-03-17T01:49:21.885Z,9.90
2023-03-17T01:52:01.062Z,10.10
2023-03-17T01:54:37.530Z,9.90
2023-03-17T01:57:14.922Z,10.00
2023-03-17T01:59:56.278Z,9.80
2023-03-17T02:02:31.295Z,9.80
2023-03-17T02:04:59.582Z,10.00
2023-03-17T02:07:27.585Z,9.90
2023-03-17T02:09:57.120Z,9.70
2023-03-17T02:12:25.998Z,9.90
2023-03-17T02:14:54.085Z,9.70
2023-03-17T02:17:23.762Z,9.70
2023-03-17T02:19:51.920Z,9.60
2023-03-17T02:22:20.436Z,9.90
2023-03-17T02:24:55.987Z,9.80
2023-03-17T02:27:35.577Z,9.50
2023-03-17T02:30:04.674Z,9.70
2023-03-17T02:32:35.574Z,9.50
2023-03-17T02:35:04.355Z,9.80
2023-03-17T02:37:32.944Z,9.70
2023-03-17T02:40:05.592Z,9.60
2023-03-17T02:42:34.355Z,9.70
2023-03-17T02:45:02.334Z,9.60
2023-03-17T02:47:29.837Z,9.80
2023-03-17T02:49:57.418Z,9.80
2023-03-17T02:52:25.247Z,9.90
2023-03-17T02:54:52.809Z,9.60
2023-03-17T02:57:20.576Z,9.80
2023-03-17T02:59:48.186Z,9.60
2023-03-17T03:02:16.864Z,9.60
2023-03-17T03:04:44.391Z,9.70
2023-03-17T03:07:12.342Z,9.80
2023-03-17T03:09:39.809Z,9.60
2023-03-17T03:12:10.008Z,9.80
2023-03-17T03:14:37.766Z,9.70
2023-03-17T03:17:05.509Z,9.50
2023-03-17T03:19:33.050Z,9.70
2023-03-17T03:22:00.787Z,9.70
2023-03-17T03:24:28.393Z,9.40
2023-03-17T03:26:55.903Z,9.50
2023-03-17T03:29:23.519Z,9.60
2023-03-17T03:31:51.317Z,9.50
2023-03-17T03:34:18.870Z,9.50
2023-03-17T03:36:46.291Z,9.60
2023-03-17T03:39:14.540Z,9.50
2023-03-17T03:41:42.376Z,9.40
2023-03-17T03:44:09.901Z,9.30
2023-03-17T03:46:37.418Z,9.60
2023-03-17T03:49:05.111Z,9.60
2023-03-17T03:51:32.574Z,9.50
2023-03-17T03:54:01.376Z,9.30
2023-03-17T03:56:28.854Z,9.50
2023-03-17T03:58:57.214Z,9.20
2023-03-17T04:01:24.794Z,9.40
2023-03-17T04:03:52.251Z,9.40
2023-03-17T04:06:19.705Z,9.30
2023-03-17T04:08:47.160Z,9.20
2023-03-17T04:11:15.270Z,9.50
2023-03-17T04:13:42.750Z,9.20
2023-03-17T04:16:10.264Z,9.10
2023-03-17T04:18:37.850Z,9.40
2023-03-17T04:21:06.201Z,9.30
2023-03-17T04:23:33.847Z,9.20
2023-03-17T04:26:01.573Z,9.40
2023-03-17T04:28:29.255Z,9.20
2023-03-17T04:30:56.868Z,9.10
2023-03-17T04:33:24.329Z,9.10
2023-03-17T04:35:51.821Z,9.20
2023-03-17T04:38:19.316Z,9.20
2023-03-17T04:40:47.076Z,9.40
2023-03-17T04:43:14.557Z,9.50
2023-03-17T04:45:41.985Z,9.20
2023-03-17T04:48:09.436Z,9.30
2023-03-17T04:50:36.858Z,9.30
2023-03-17T04:53:04.356Z,9.20
2023-03-17T04:55:31.815Z,9.20
2023-03-17T04:57:59.227Z,9.40
2023-03-17T05:00:26.797Z,9.30
2023-03-17T05:02:54.293Z,9.20
2023-03-17T05:05:21.773Z,9.20
2023-03-17T05:07:49.213Z,9.40
2023-03-17T05:10:16.930Z,9.10
2023-03-17T05:12:45.330Z,9.40
2023-03-17T05:15:13.005Z,9.40
2023-03-17T05:17:40.940Z,9.30
2023-03-17T05:20:09.571Z,9.10
2023-03-17T05:22:37.734Z,9.30
2023-03-17T05:25:06.734Z,9.20
2023-03-17T05:27:34.136Z,9.20
2023-03-17T05:30:02.736Z,9.40
2023-03-17T05:32:30.235Z,9.10
2023-03-17T05:34:57.901Z,9.10
2023-03-17T05:37:25.822Z,9.00
2023-03-17T05:39:53.902Z,9.20
2023-03-17T05:42:21.453Z,9.40
2023-03-17T05:44:48.975Z,9.40
2023-03-17T05:47:16.487Z,9.30
2023-03-17T05:49:43.919Z,9.00
2023-03-17T05:52:11.926Z,9.00
2023-03-17T05:54:39.643Z,9.20
2023-03-17T05:57:07.980Z,9.30
2023-03-17T05:59:36.246Z,9.00
2023-03-17T06:02:03.775Z,9.30
2023-03-17T06:04:31.324Z,9.00
2023-03-17T06:06:58.832Z,9.20
2023-03-17T06:09:26.393Z,9.30
2023-03-17T06:11:53.945Z,9.20
2023-03-17T06:14:21.351Z,9.10
2023-03-17T06:16:48.803Z,9.20
2023-03-17T06:19:16.831Z,9.20
2023-03-17T06:21:44.305Z,9.20
2023-03-17T06:24:12.607Z,8.90
2023-03-17T06:26:40.431Z,9.00
2023-03-17T06:29:09.837Z,8.90
2023-03-17T06:31:37.621Z,9.10
2023-03-17T06:34:05.614Z,9.10
2023-03-17T06:36:33.638Z,9.00
2023-03-17T06:39:01.149Z,9.00
2023-03-17T06:41:28.562Z,9.00
2023-03-17T06:43:56.597Z,9.00
2023-03-17T06:46:24.296Z,9.10
2023-03-17T06:48:51.760Z,8.90
2023-03-17T06:51:19.258Z,9.10
2023-03-17T06:53:46.692Z,9.20
2023-03-17T06:56:27.364Z,9.10
2023-03-17T06:58:57.615Z,9.20
2023-03-17T07:01:27.321Z,8.90
2023-03-17T07:03:55.837Z,8.90
2023-03-17T07:06:26.023Z,9.10
2023-03-17T07:08:53.558Z,9.20
2023-03-17T07:11:23.659Z,8.90
2023-03-17T07:13:51.125Z,8.90
2023-03-17T07:16:19.699Z,8.90
2023-03-17T07:18:47.576Z,9.10
2023-03-17T07:21:15.686Z,8.90
2023-03-17T07:23:43.483Z,9.10
2023-03-17T07:26:11.135Z,9.20
2023-03-17T07:28:38.648Z,9.20
2023-03-17T07:31:08.940Z,9.20
2023-03-17T07:33:36.510Z,9.20
2023-03-17T07:36:07.256Z,9.00
2023-03-17T07:38:35.080Z,9.10
2023-03-17T07:41:03.653Z,9.00
2023-03-17T07:43:31.961Z,9.30
2023-03-17T07:45:59.514Z,9.10
2023-03-17T07:48:27.022Z,9.40
2023-03-17T07:50:54.456Z,9.40
2023-03-17T07:53:21.921Z,9.20
2023-03-17T07:55:49.412Z,9.60
2023-03-17T07:58:16.897Z,9.50
2023-03-17T08:00:44.363Z,9.70
2023-03-17T08:03:12.602Z,9.70
2023-03-17T08:05:41.161Z,9.50
2023-03-17T08:08:08.737Z,9.60
2023-03-17T08:10:36.299Z,9.60
2023-03-17T08:13:03.996Z,9.60
2023-03-17T08:15:32.759Z,9.80
2023-03-17T08:18:01.095Z,9.80
2023-03-17T08:20:28.610Z,9.80
2023-03-17T08:22:56.820Z,9.70
2023-03-17T08:25:24.818Z,9.70
2023-03-17T08:27:52.711Z,9.70
2023-03-17T08:30:20.894Z,9.70
2023-03-17T08:32:48.491Z,9.70
2023-03-17T08:35:18.674Z,9.80
2023-03-17T08:37:47.613Z,9.80
2023-03-17T08:40:17.763Z,10.00
2023-03-17T08:42:47.207Z,10.00
2023-03-17T08:45:16.469Z,10.00
2023-03-17T08:47:44.874Z,10.00
2023-03-17T08:50:18.319Z,10.00
2023-03-17T08:52:46.827Z,10.00
2023-03-17T08:55:15.368Z,10.10
2023-03-17T08:57:44.775Z,10.10
2023-03-17T09:00:15.363Z,10.20
2023-03-17T09:02:43.986Z,10.30
2023-03-17T09:05:14.082Z,10.40
2023-03-17T09:07:42.515Z,10.40
2023-03-17T09:10:11.006Z,10.30
2023-03-17T09:12:38.878Z,10.50
2023-03-17T09:15:07.754Z,10.50
2023-03-17T09:17:35.287Z,10.50
2023-03-17T09:20:02.975Z,10.60
2023-03-17T09:22:31.105Z,10.50
2023-03-17T09:24:58.822Z,10.70
2023-03-17T09:27:26.558Z,10.60
2023-03-17T09:29:54.003Z,10.70
2023-03-17T09:32:21.625Z,10.90
2023-03-17T09:34:51.427Z,10.80
2023-03-17T09:37:19.125Z,10.80
2023-03-17T09:39:46.755Z,11.10
2023-03-17T09:42:56.582Z,11.00
2023-03-17T09:45:43.354Z,11.00
2023-03-17T09:48:22.634Z,11.10
2023-03-17T09:50:50.122Z,11.10
2023-03-17T09:53:23.358Z,11.10
2023-03-17T09:55:55.652Z,11.10
2023-03-17T09:58:31.281Z,11.20
2023-03-17T10:01:00.377Z,11.00
2023-03-17T10:03:27.890Z,11.10
2023-03-17T10:06:17.931Z,11.20
2023-03-17T10:08:53.360Z,11.30
2023-03-17T10:11:46.873Z,11.30
2023-03-17T10:14:51.626Z,11.30
2023-03-17T10:17:19.241Z,11.40
2023-03-17T10:20:01.394Z,11.50
2023-03-17T10:22:46.323Z,11.40
2023-03-17T10:25:20.127Z,11.60
2023-03-17T10:27:55.928Z,11.60
2023-03-17T10:30:24.156Z,11.60
2023-03-17T10:32:54.169Z,11.60
2023-03-17T10:35:23.958Z,11.70
2023-03-17T10:37:58.902Z,11.70
2023-03-17T10:40:32.270Z,11.80
2023-03-17T10:43:10.391Z,11.90
2023-03-17T10:45:44.032Z,11.90
2023-03-17T10:48:19.059Z,11.80
2023-03-17T10:50:49.271Z,12.00
2023-03-17T10:53:29.471Z,12.00
2023-03-17T10:56:09.519Z,12.10
2023-03-17T10:58:43.618Z,12.20
2023-03-17T11:01:23.040Z,12.40
2023-03-17T11:03:50.955Z,12.40
2023-03-17T11:06:21.496Z,12.50
2023-03-17T11:08:54.926Z,12.60
2023-03-17T11:11:31.041Z,12.70
2023-03-17T11:14:06.658Z,12.70
2023-03-17T11:16:40.769Z,12.70
2023-03-17T11:19:14.267Z,12.60
2023-03-17T11:22:30.045Z,12.50
2023-03-17T11:25:23.549Z,12.50
2023-03-17T11:27:59.314Z,12.40
2023-03-17T11:30:47.698Z,12.40
2023-03-17T11:33:37.299Z,12.50
2023-03-17T11:36:17.358Z,12.40
2023-03-17T11:39:00.126Z,12.40
2023-03-17T11:41:46.098Z,12.40
2023-03-17T11:44:28.985Z,12.50
2023-03-17T11:47:38.171Z,12.70
2023-03-17T11:50:28.703Z,12.90
2023-03-17T11:53:27.307Z,13.00
2023-03-17T11:55:57.956Z,13.30
2023-03-17T11:58:47.162Z,13.40
2023-03-17T12:01:19.610Z,13.20
2023-03-17T12:03:59.169Z,13.30
2023-03-17T12:06:35.085Z,13.30
2023-03-17T12:09:39.976Z,13.20
2023-03-17T12:12:10.725Z,13.20
2023-03-17T12:14:53.376Z,13.10
2023-03-17T12:17:37.587Z,13.10
2023-03-17T12:20:09.655Z,13.20
2023-03-17T12:22:47.106Z,13.10
2023-03-17T12:25:35.049Z,13.00
2023-03-17T12:28:02.465Z,12.90
2023-03-17T12:30:45.553Z,12.90
2023-03-17T12:34:07.989Z,12.90
2023-03-17T12:36:36.855Z,12.80
2023-03-17T12:39:10.344Z,12.80
2023-03-17T12:41:59.810Z,12.50
2023-03-17T12:44:46.811Z,12.50
2023-03-17T12:47:52.452Z,12.40
2023-03-17T12:50:48.082Z,12.40
2023-03-17T12:53:32.556Z,12.40
2023-03-17T12:56:22.772Z,12.30
2023-03-17T12:58:53.173Z,12.30
2023-03-17T13:01:37.336Z,12.20
2023-03-17T13:04:13.581Z,12.30
2023-03-17T13:06:43.730Z,12.30
2023-03-17T13:09:37.370Z,12.40
2023-03-17T13:12:07.212Z,12.40
2023-03-17T13:14:42.650Z,12.40
2023-03-17T13:17:23.848Z,12.50
2023-03-17T13:20:36.399Z,12.60
2023-03-17T13:23:14.744Z,12.70
2023-03-17T13:25:44.049Z,12.80
2023-03-17T13:28:14.980Z,12.80
2023-03-17T13:30:50.038Z,12.90
2023-03-17T13:33:23.515Z,13.10
2023-03-17T13:36:10.075Z,13.20
2023-03-17T13:38:40.351Z,13.20
2023-03-17T13:41:34.608Z,13.10
2023-03-17T13:44:08.693Z,13.10
2023-03-17T13:46:41.757Z,13.10
2023-03-17T13:49:27.603Z,13.10
2023-03-17T13:52:13.927Z,13.10
2023-03-17T13:54:48.026Z,13.20
2023-03-17T13:57:30.765Z,13.30
2023-03-17T14:00:14.889Z,13.40
2023-03-17T14:02:43.547Z,13.60
2023-03-17T14:05:30.138Z,13.80
2023-03-17T14:08:04.096Z,14.00
2023-03-17T14:10:34.075Z,14.10
2023-03-17T14:13:06.933Z,13.90
2023-03-17T14:15:47.943Z,13.90
2023-03-17T14:18:16.757Z,13.90
2023-03-17T14:20:55.368Z,14.00
2023-03-17T14:23:24.494Z,14.10
2023-03-17T14:25:54.744Z,14.00
2023-03-17T14:28:30.400Z,14.10
2023-03-17T14:31:03.761Z,14.10
2023-03-17T14:33:34.634Z,14.00
2023-03-17T14:36:04.348Z,13.90
2023-03-17T14:38:38.065Z,13.80
2023-03-17T14:41:17.910Z,13.80
2023-03-17T14:43:46.551Z,13.70
2023-03-17T14:46:27.922Z,13.60
2023-03-17T14:49:01.916Z,13.60
2023-03-17T14:51:40.712Z,13.60
2023-03-17T14:54:22.843Z,13.70
2023-03-17T14:57:02.003Z,13.70
2023-03-17T14:59:34.221Z,13.70
2023-03-17T15:02:23.755Z,13.80
2023-03-17T15:05:17.309Z,13.90
2023-03-17T15:07:44.833Z,13.90
2023-03-17T15:10:17.842Z,14.00
2023-03-17T15:12:46.771Z,13.90
2023-03-17T15:15:26.086Z,13.90
2023-03-17T15:17:59.185Z,13.90
2023-03-17T15:20:28.889Z,13.80
2023-03-17T15:22:57.993Z,13.70
2023-03-17T15:25:32.717Z,13.50
2023-03-17T15:28:00.693Z,13.40
2023-03-17T15:30:37.389Z,13.40
2023-03-17T15:33:22.397Z,13.30
2023-03-17T15:35:51.210Z,13.20
2023-03-17T15:38:18.870Z,13.10
2023-03-17T15:40:46.411Z,13.00
2023-03-17T15:43:18.237Z,13.00
2023-03-17T15:45:46.440Z,12.80
2023-03-17T15:48:26.520Z,12.80
2023-03-17T15:50:56.017Z,12.80
2023-03-17T15:53:23.798Z,12.80
2023-03-17T15:55:51.343Z,12.80
2023-03-17T15:58:19.143Z,12.80
2023-03-17T16:00:52.746Z,12.80
2023-03-17T16:03:37.114Z,12.80
2023-03-17T16:06:07.378Z,12.80
2023-03-17T16:08:35.495Z,12.80
2023-03-17T16:11:03.453Z,12.70
2023-03-17T16:13:31.067Z,12.70
2023-03-17T16:16:00.992Z,12.70
2023-03-17T16:18:34.375Z,12.70
2023-03-17T16:21:03.973Z,12.70
2023-03-17T16:23:35.329Z,12.70
2023-03-17T16:26:14.311Z,12.60
2023-03-17T16:28:46.073Z,12.60
2023-03-17T16:31:19.671Z,12.60
2023-03-17T16:33:47.842Z,12.60
2023-03-17T16:36:17.607Z,12.60
2023-03-17T16:38:45.902Z,12.60
2023-03-17T16:41:19.162Z,12.50
2023-03-17T16:43:51.229Z,12.50
2023-03-17T16:46:20.788Z,12.50
2023-03-17T16:48:49.795Z,12.60
2023-03-17T16:51:18.224Z,12.50
2023-03-17T16:53:46.140Z,12.30
2023-03-17T16:56:17.783Z,11.90
2023-03-17T16:58:46.802Z,11.70
2023-03-17T17:01:20.132Z,11.50
2023-03-17T17:03:48.398Z,11.20
2023-03-17T17:06:16.629Z,11.10
2023-03-17T17:08:45.463Z,10.70
2023-03-17T17:11:14.651Z,10.50
2023-03-17T17:13:43.959Z,10.50
2023-03-17T17:16:26.664Z,10.30
2023-03-17T17:18:54.684Z,10.20
2023-03-17T17:21:22.456Z,9.90
2023-03-17T17:23:52.696Z,9.80
2023-03-17T17:26:21.219Z,9.50
2023-03-17T17:28:48.991Z,9.50
2023-03-17T17:31:16.880Z,9.50
2023-03-17T17:33:44.571Z,9.30
2023-03-17T17:36:15.299Z,9.50
2023-03-17T17:38:43.210Z,9.50
2023-03-17T17:41:12.314Z,9.40
2023-03-17T17:43:40.247Z,9.30
2023-03-17T17:46:20.808Z,9.20
2023-03-17T17:48:49.115Z,9.30
2023-03-17T17:51:16.813Z,9.40
2023-03-17T17:53:44.440Z,9.10
2023-03-17T17:56:16.209Z,9.40
2023-03-17T17:58:43.968Z,9.10
2023-03-17T18:01:14.138Z,9.20
2023-03-17T18:03:42.972Z,9.00
2023-03-17T18:06:11.726Z,9.10
2023-03-17T18:08:40.065Z,9.30
2023-03-17T18:11:07.683Z,9.30
2023-03-17T18:13:36.322Z,9.10
2023-03-17T18:16:04.196Z,9.10
2023-03-17T18:18:32.662Z,9.10
2023-03-17T18:21:00.091Z,9.30
2023-03-17T18:23:28.060Z,9.40
2023-03-17T18:26:02.996Z,9.30
2023-03-17T18:28:30.837Z,9.20
2023-03-17T18:31:24.751Z,9.00
2023-03-17T18:33:59.977Z,9.30
2023-03-17T18:36:29.862Z,9.10
2023-03-17T18:38:57.395Z,9.20
2023-03-17T18:41:26.067Z,9.00
2023-03-17T18:43:53.549Z,9.10
2023-03-17T18:46:21.371Z,9.10
2023-03-17T18:48:48.920Z,9.10
2023-03-17T18:51:16.690Z,8.80
2023-03-17T18:53:44.268Z,9.10
2023-03-17T18:56:11.992Z,9.00
2023-03-17T18:58:39.433Z,9.00
2023-03-17T19:01:07.694Z,8.80
2023-03-17T19:03:35.645Z,8.80
2023-03-17T19:06:13.106Z,8.90
2023-03-17T19:08:40.836Z,8.70
2023-03-17T19:11:09.722Z,8.70
2023-03-17T19:13:37.914Z,8.60
2023-03-17T19:16:07.576Z,8.80
2023-03-17T19:18:36.758Z,8.80
2023-03-17T19:21:04.838Z,8.50
2023-03-17T19:23:33.546Z,8.60
2023-03-17T19:26:01.259Z,8.40
2023-03-17T19:28:29.054Z,8.60
2023-03-17T19:30:56.781Z,8.50
2023-03-17T19:33:24.376Z,8.70
2023-03-17T19:35:57.007Z,8.70
2023-03-17T19:38:24.981Z,8.50
2023-03-17T19:40:53.010Z,8.70
2023-03-17T19:43:39.089Z,8.70
2023-03-17T19:46:07.985Z,8.70
2023-03-17T19:48:36.625Z,8.70
2023-03-17T19:51:04.517Z,8.60
2023-03-17T19:53:32.000Z,8.70
2023-03-17T19:55:59.456Z,8.40
2023-03-17T19:58:27.096Z,8.30
2023-03-17T20:00:54.599Z,8.30
2023-03-17T20:03:25.575Z,8.50
2023-03-17T20:05:53.761Z,8.50
2023-03-17T20:08:22.628Z,8.60
2023-03-17T20:10:54.000Z,8.60
2023-03-17T20:13:22.220Z,8.50
2023-03-17T20:15:51.562Z,8.40
2023-03-17T20:18:19.911Z,8.10
2023-03-17T20:20:51.610Z,8.20
2023-03-17T20:23:19.895Z,8.60
2023-03-17T20:25:49.459Z,8.50
2023-03-17T20:28:17.837Z,8.30
2023-03-17T20:30:47.143Z,8.60
2023-03-17T20:33:14.855Z,8.30
2023-03-17T20:35:46.095Z,8.50
2023-03-17T20:38:14.731Z,8.30
2023-03-17T20:40:42.690Z,8.30
2023-03-17T20:43:10.808Z,8.60
2023-03-17T20:45:38.593Z,8.50
2023-03-17T20:48:09.340Z,8.60
2023-03-17T20:50:38.261Z,8.60
2023-03-17T20:53:05.884Z,8.40
2023-03-17T20:55:33.348Z,8.40
2023-03-17T20:58:01.847Z,8.40
2023-03-17T21:00:32.001Z,8.30
2023-03-17T21:03:02.257Z,8.20
2023-03-17T21:05:30.165Z,8.50
2023-03-17T21:07:57.647Z,8.20
2023-03-17T21:10:25.541Z,8.20
2023-03-17T21:12:53.015Z,8.30
2023-03-17T21:15:22.913Z,8.20
2023-03-17T21:17:50.568Z,8.40
2023-03-17T21:20:19.562Z,8.20
2023-03-17T21:22:48.200Z,8.20
2023-03-17T21:25:15.639Z,8.50
2023-03-17T21:27:44.089Z,8.20
2023-03-17T21:30:13.505Z,8.50
2023-03-17T21:32:41.920Z,8.10
2023-03-17T21:35:10.453Z,8.10
2023-03-17T21:37:38.025Z,8.10
2023-03-17T21:40:06.801Z,8.00
2023-03-17T21:42:34.988Z,8.10
2023-03-17T21:45:02.623Z,8.30
2023-03-17T21:47:30.252Z,8.20
2023-03-17T21:50:00.769Z,8.40
2023-03-17T21:52:28.337Z,8.40
2023-03-17T21:54:56.044Z,8.20
2023-03-17T21:57:23.465Z,8.20
2023-03-17T21:59:51.116Z,8.10
2023-03-17T22:02:18.806Z,8.30
2023-03-17T22:04:46.931Z,8.00
2023-03-17T22:07:16.580Z,8.10
2023-03-17T22:09:44.424Z,8.40
2023-03-17T22:12:11.986Z,8.00
2023-03-17T22:14:39.507Z,8.30
2023-03-17T22:17:06.956Z,8.30
2023-03-17T22:19:34.559Z,8.40
2023-03-17T22:22:03.657Z,8.30
2023-03-17T22:24:32.480Z,8.00
2023-03-17T22:27:00.087Z,8.20
2023-03-17T22:29:27.597Z,8.10
2023-03-17T22:31:55.329Z,8.40
2023-03-17T22:34:23.389Z,8.40
2023-03-17T22:36:51.434Z,8.30
2023-03-17T22:39:19.031Z,8.20
2023-03-17T22:41:46.449Z,8.50
2023-03-17T22:44:14.234Z,8.50
2023-03-17T22:46:41.685Z,8.40
2023-03-17T22:49:10.235Z,8.10
2023-03-17T22:51:38.425Z,8.40
2023-03-17T22:54:05.979Z,8.20
2023-03-17T22:56:33.392Z,8.40
2023-03-17T22:59:01.975Z,8.10
2023-03-17T23:01:29.473Z,8.10
2023-03-17T23:03:57.170Z,8.30
2023-03-17T23:06:25.167Z,8.20
2023-03-17T23:08:52.715Z,8.20
2023-03-17T23:11:23.441Z,8.20
2023-03-17T23:13:52.750Z,8.40
2023-03-17T23:16:21.627Z,8.20
2023-03-17T23:18:49.357Z,8.50
2023-03-17T23:21:31.883Z,8.50
2023-03-17T23:24:00.619Z,8.10
2023-03-17T23:26:28.522Z,8.40
2023-03-17T23:28:56.679Z,8.40
2023-03-17T23:31:24.850Z,8.20
2023-03-17T23:33:52.723Z,8.30
2023-03-17T23:36:21.359Z,8.50
2023-03-17T23:38:49.613Z,8.30
2023-03-17T23:41:17.715Z,8.50
2023-03-17T23:43:46.731Z,8.40
2023-03-17T23:46:14.752Z,8.30
2023-03-17T23:48:43.010Z,8.30
2023-03-17T23:51:12.609Z,8.60
2023-03-17T23:53:41.734Z,8.30
2023-03-17T23:56:11.174Z,8.60
2023-03-17T23:58:39.825Z,8.30
